Time;durP1;ratioP1;P1;durP2;ratioP2;P2;SDS_P1;SDS_P2;PMS_P1;PMS_P2;Temp;Humidity;BMP_temperature;BMP_pressure;BME280_temperature;BME280_humidity;BME280_pressure;Samples;Min_cycle;Max_cycle;Signal;HPM_P1;HPM_P2
2022/10/03 00:02:03;;;;;;;14.55;4.00;;;9.70;99.90;;;;;;5043770;28;20510;-65
2022/10/03 00:04:39;;;;;;;12.93;4.72;;;9.70;99.90;;;;;;5032841;28;20048;-66
2022/10/03 00:07:10;;;;;;;13.70;4.03;;;9.70;99.90;;;;;;5040732;28;20056;-65
2022/10/03 00:09:47;;;;;;;11.45;3.97;;;9.70;99.90;;;;;;5018237;28;20075;-65
2022/10/03 00:12:16;;;;;;;7.65;3.33;;;9.70;99.90;;;;;;5006291;28;20040;-65
2022/10/03 00:14:47;;;;;;;12.10;4.38;;;9.80;99.90;;;;;;5034448;28;20135;-66
2022/10/03 00:17:18;;;;;;;9.32;3.50;;;9.70;99.90;;;;;;5039455;28;20063;-65
2022/10/03 00:19:54;;;;;;;8.18;3.03;;;9.70;99.90;;;;;;5017318;28;20041;-65
2022/10/03 00:23:07;;;;;;;8.95;4.35;;;9.70;99.90;;;;;;5040047;28;20064;-67
2022/10/03 00:25:57;;;;;;;11.55;3.70;;;9.60;99.90;;;;;;4936890;29;20059;-65
2022/10/03 00:29:02;;;;;;;7.97;4.10;;;9.60;99.90;;;;;;4952918;28;20105;-65
2022/10/03 00:31:43;;;;;;;11.73;3.50;;;9.60;99.90;;;;;;4947911;29;20050;-65
2022/10/03 00:34:30;;;;;;;9.68;3.42;;;9.60;99.90;;;;;;4951274;28;20082;-62
2022/10/03 00:37:15;;;;;;;15.15;3.35;;;9.60;99.90;;;;;;5022219;28;20041;-66
2022/10/03 00:39:59;;;;;;;7.82;2.83;;;9.60;99.90;;;;;;5053059;28;20151;-65
2022/10/03 00:43:08;;;;;;;10.15;3.55;;;9.60;99.90;;;;;;5046896;28;20055;-65
2022/10/03 00:45:54;;;;;;;9.50;4.72;;;9.50;99.90;;;;;;5017879;28;20421;-65
2022/10/03 00:48:55;;;;;;;9.43;3.50;;;9.60;99.90;;;;;;5040994;28;20044;-65
2022/10/03 00:51:37;;;;;;;8.18;3.70;;;9.50;99.90;;;;;;5051666;28;20381;-65
2022/10/03 00:54:13;;;;;;;10.63;3.38;;;9.40;99.90;;;;;;5041258;28;20426;-65
2022/10/03 00:57:02;;;;;;;8.88;3.65;;;9.40;99.90;;;;;;5051436;28;20047;-65
2022/10/03 00:59:53;;;;;;;8.57;3.63;;;9.40;99.90;;;;;;4990252;28;20056;-65
2022/10/03 01:02:58;;;;;;;10.98;3.00;;;9.40;99.90;;;;;;5036598;28;20045;-65
2022/10/03 01:05:30;;;;;;;17.10;4.57;;;9.40;99.90;;;;;;5018355;28;20049;-66
2022/10/03 01:08:16;;;;;;;12.00;3.70;;;9.30;99.90;;;;;;5039957;28;20052;-65
2022/10/03 01:10:55;;;;;;;8.93;3.42;;;9.40;99.90;;;;;;5034772;28;20132;-66
2022/10/03 01:14:04;;;;;;;9.25;3.13;;;9.40;99.90;;;;;;5041835;28;20092;-67
2022/10/03 01:16:41;;;;;;;12.00;3.17;;;9.40;99.90;;;;;;4952194;29;20086;-66
2022/10/03 01:19:07;;;;;;;9.23;4.78;;;9.30;99.90;;;;;;4942378;28;20057;-66
2022/10/03 01:21:49;;;;;;;10.65;3.25;;;9.30;99.90;;;;;;5004690;28;20045;-66
2022/10/03 01:24:44;;;;;;;9.52;3.78;;;9.30;99.90;;;;;;5014313;28;20045;-65
2022/10/03 01:27:13;;;;;;;16.17;6.38;;;9.40;99.90;;;;;;5052340;28;20470;-66
2022/10/03 01:32:58;;;;;;;10.57;3.22;;;9.40;99.90;;;;;;5051769;28;20049;-65
2022/10/03 01:35:35;;;;;;;13.45;4.20;;;9.30;99.90;;;;;;5017546;28;20147;-65
2022/10/03 01:38:18;;;;;;;8.85;3.53;;;9.20;99.90;;;;;;5032513;28;20484;-66
2022/10/03 01:41:01;;;;;;;11.38;4.07;;;9.10;99.90;;;;;;5024642;28;20044;-66
2022/10/03 01:43:37;;;;;;;6.20;3.10;;;9.10;99.90;;;;;;5032344;28;20053;-66
2022/10/03 01:46:05;;;;;;;5.97;3.13;;;9.10;99.90;;;;;;5043032;28;20668;-66
2022/10/03 01:48:49;;;;;;;8.23;3.22;;;9.00;99.90;;;;;;5033155;28;20609;-66
2022/10/03 01:52:01;;;;;;;11.05;3.30;;;9.00;99.90;;;;;;5042987;28;20526;-66
2022/10/03 01:54:32;;;;;;;8.00;2.85;;;8.90;99.90;;;;;;5019601;28;20552;-65
2022/10/03 01:57:20;;;;;;;10.43;3.60;;;9.00;99.90;;;;;;5029403;28;20045;-66
2022/10/03 02:00:05;;;;;;;8.27;3.30;;;9.00;99.90;;;;;;5025781;28;20127;-66
2022/10/03 02:02:54;;;;;;;6.25;2.88;;;9.10;99.90;;;;;;5018679;28;20052;-66
2022/10/03 02:05:34;;;;;;;7.93;3.30;;;9.00;99.90;;;;;;5024541;28;20080;-66
2022/10/03 02:08:29;;;;;;;11.88;4.53;;;8.90;99.90;;;;;;5015422;28;20041;-66
2022/10/03 02:11:08;;;;;;;8.27;3.88;;;8.80;99.90;;;;;;5023366;28;20115;-66
2022/10/03 02:13:47;;;;;;;11.90;2.75;;;8.90;99.90;;;;;;5051521;28;20488;-65
2022/10/03 02:16:16;;;;;;;10.30;3.58;;;8.90;99.90;;;;;;5026256;28;20051;-65
2022/10/03 02:19:07;;;;;;;9.57;2.72;;;8.90;99.90;;;;;;5031628;28;20057;-66
2022/10/03 02:21:34;;;;;;;7.57;2.85;;;8.80;99.90;;;;;;5025368;28;20049;-67
2022/10/03 02:24:19;;;;;;;10.80;3.45;;;8.80;99.90;;;;;;5017125;28;20053;-66
2022/10/03 02:26:51;;;;;;;6.75;3.05;;;8.80;99.90;;;;;;5022510;28;20136;-65
2022/10/03 02:29:36;;;;;;;12.85;3.70;;;8.80;99.90;;;;;;5051200;28;20073;-66
2022/10/03 02:32:21;;;;;;;9.23;3.15;;;8.70;99.90;;;;;;5018322;28;20056;-66
2022/10/03 02:35:07;;;;;;;9.07;2.95;;;8.70;99.90;;;;;;5033940;28;20049;-66
2022/10/03 02:37:52;;;;;;;8.43;2.67;;;8.60;99.90;;;;;;5033469;28;20071;-66
2022/10/03 02:40:44;;;;;;;12.48;4.68;;;8.60;99.90;;;;;;5050003;28;20102;-66
2022/10/03 02:43:15;;;;;;;7.07;2.90;;;8.50;99.90;;;;;;5044183;28;20045;-66
2022/10/03 02:45:45;;;;;;;7.40;2.45;;;8.60;99.90;;;;;;5047975;28;20045;-66
2022/10/03 02:48:34;;;;;;;8.93;3.10;;;8.50;99.90;;;;;;5042536;28;20053;-66
2022/10/03 02:51:45;;;;;;;10.55;3.33;;;8.40;99.90;;;;;;5046958;28;20042;-66
2022/10/03 02:54:24;;;;;;;7.95;2.65;;;8.50;99.90;;;;;;4968067;28;20049;-65
2022/10/03 02:57:22;;;;;;;7.60;2.97;;;8.50;99.90;;;;;;5043137;28;20053;-65
2022/10/03 03:00:05;;;;;;;11.35;2.92;;;8.40;99.90;;;;;;5035731;28;20045;-65
2022/10/03 03:03:04;;;;;;;8.60;3.40;;;8.40;99.90;;;;;;5006566;28;20050;-66
2022/10/03 03:05:40;;;;;;;5.97;2.88;;;8.40;99.90;;;;;;5037354;28;20128;-66
2022/10/03 03:08:25;;;;;;;5.65;2.75;;;8.40;99.90;;;;;;5043171;28;20056;-66
2022/10/03 03:11:29;;;;;;;7.28;2.70;;;8.40;99.90;;;;;;5053898;28;20049;-66
2022/10/03 03:14:21;;;;;;;7.78;2.75;;;8.40;99.90;;;;;;5045319;28;20049;-66
2022/10/03 03:17:09;;;;;;;4.60;2.70;;;8.40;99.90;;;;;;5050966;28;20055;-66
2022/10/03 03:19:58;;;;;;;7.07;3.28;;;8.40;99.90;;;;;;5049219;28;20041;-66
2022/10/03 03:22:51;;;;;;;8.88;3.17;;;8.40;99.90;;;;;;5013099;28;20045;-67
2022/10/03 03:26:13;;;;;;;7.22;3.17;;;8.50;99.90;;;;;;5020929;28;20049;-67
2022/10/03 03:29:19;;;;;;;8.43;3.00;;;8.50;99.90;;;;;;4942029;29;20505;-66
2022/10/03 03:31:59;;;;;;;6.90;2.80;;;8.40;99.90;;;;;;4936701;29;20589;-66
2022/10/03 03:34:41;;;;;;;8.80;3.45;;;8.40;99.90;;;;;;5027153;28;20053;-66
2022/10/03 03:37:30;;;;;;;8.85;3.97;;;8.40;99.90;;;;;;5020911;28;20041;-67
2022/10/03 03:40:18;;;;;;;7.50;2.80;;;8.40;99.90;;;;;;5016776;28;20049;-66
2022/10/03 03:42:53;;;;;;;10.35;2.45;;;8.40;99.90;;;;;;5034619;28;20055;-66
2022/10/03 03:45:41;;;;;;;7.60;2.42;;;8.40;99.90;;;;;;5007159;28;20060;-65
2022/10/03 03:48:22;;;;;;;10.65;3.75;;;8.40;99.90;;;;;;5022554;28;20183;-66
2022/10/03 03:50:48;;;;;;;9.68;3.60;;;8.40;99.90;;;;;;5030476;28;20052;-66
2022/10/03 03:53:23;;;;;;;6.85;2.65;;;8.30;99.90;;;;;;5048075;28;20107;-65
2022/10/03 03:56:14;;;;;;;9.70;4.93;;;8.30;99.90;;;;;;5014446;28;20045;-66
2022/10/03 03:59:10;;;;;;;8.10;2.90;;;8.30;99.90;;;;;;5031132;28;20054;-66
2022/10/03 04:01:44;;;;;;;7.25;2.75;;;8.20;99.90;;;;;;5038523;28;20049;-66
2022/10/03 04:04:33;;;;;;;5.82;2.80;;;8.10;99.90;;;;;;5033849;28;20045;-66
2022/10/03 04:07:16;;;;;;;8.75;3.50;;;8.10;99.90;;;;;;5033487;28;20507;-66
2022/10/03 04:09:53;;;;;;;10.25;2.72;;;8.10;99.90;;;;;;5045898;28;20045;-65
2022/10/03 04:12:41;;;;;;;9.27;2.70;;;8.10;99.90;;;;;;5016223;28;20052;-66
2022/10/03 04:15:23;;;;;;;9.90;2.65;;;8.10;99.90;;;;;;5045917;28;20416;-66
2022/10/03 04:21:37;;;;;;;8.57;2.90;;;8.10;99.90;;;;;;5042286;28;20419;-64
2022/10/03 04:24:23;;;;;;;4.07;2.38;;;8.20;99.90;;;;;;5049379;28;20458;-65
2022/10/03 04:27:09;;;;;;;12.88;3.25;;;8.20;99.90;;;;;;5029716;28;20053;-65
2022/10/03 04:30:00;;;;;;;8.23;3.03;;;8.20;99.90;;;;;;5029632;28;20408;-65
2022/10/03 04:32:36;;;;;;;8.40;3.08;;;8.10;99.90;;;;;;5051636;28;20049;-66
2022/10/03 04:35:30;;;;;;;7.63;2.80;;;8.10;99.90;;;;;;5026366;28;20472;-65
2022/10/03 04:38:20;;;;;;;3.63;2.42;;;8.10;99.90;;;;;;5031804;28;20485;-65
2022/10/03 04:41:18;;;;;;;9.48;2.60;;;8.10;99.90;;;;;;5012498;28;20500;-66
2022/10/03 04:44:07;;;;;;;7.63;2.75;;;8.10;99.90;;;;;;5053360;28;20053;-65
2022/10/03 04:46:51;;;;;;;8.52;2.70;;;8.10;99.90;;;;;;5044987;28;20045;-66
2022/10/03 04:49:51;;;;;;;8.90;3.38;;;8.10;99.90;;;;;;5019209;28;20748;-66
2022/10/03 04:52:41;;;;;;;7.28;3.05;;;8.10;99.90;;;;;;5045583;28;20500;-65
2022/10/03 04:55:23;;;;;;;6.95;2.60;;;8.10;99.90;;;;;;5042128;28;20095;-66
2022/10/03 04:57:59;;;;;;;6.97;3.70;;;8.10;99.90;;;;;;5026161;28;20137;-65
2022/10/03 05:00:40;;;;;;;11.75;3.90;;;8.10;99.90;;;;;;5038814;28;20041;-66
2022/10/03 05:03:21;;;;;;;6.50;2.72;;;8.10;99.90;;;;;;4999454;28;20053;-66
2022/10/03 05:06:24;;;;;;;9.90;2.90;;;8.20;99.90;;;;;;5030954;28;20055;-65
2022/10/03 05:09:20;;;;;;;6.95;2.80;;;8.20;99.90;;;;;;5011661;28;20118;-66
2022/10/03 05:12:05;;;;;;;5.03;2.75;;;8.20;99.90;;;;;;4980482;28;20050;-65
2022/10/03 05:14:48;;;;;;;7.78;2.55;;;8.20;99.90;;;;;;4983923;28;20520;-65
2022/10/03 05:17:22;;;;;;;5.13;2.65;;;8.20;99.90;;;;;;5022261;28;20044;-65
2022/10/03 05:19:58;;;;;;;7.60;2.58;;;8.20;99.90;;;;;;5033802;28;20476;-65
2022/10/03 05:22:50;;;;;;;10.23;2.80;;;8.20;99.90;;;;;;5039588;28;20059;-65
2022/10/03 05:25:26;;;;;;;9.88;2.80;;;8.30;99.90;;;;;;5034141;28;20052;-65
2022/10/03 05:28:04;;;;;;;7.07;2.55;;;8.30;99.90;;;;;;5043164;28;20057;-66
2022/10/03 05:30:57;;;;;;;11.98;3.10;;;8.30;99.90;;;;;;4984261;28;20065;-66
2022/10/03 05:33:27;;;;;;;20.88;3.97;;;8.30;99.90;;;;;;5014487;28;20049;-65
2022/10/03 05:36:05;;;;;;;7.22;2.40;;;8.30;99.90;;;;;;5016317;28;20124;-65
2022/10/03 05:38:56;;;;;;;7.43;2.40;;;8.30;99.90;;;;;;5040441;28;20077;-65
2022/10/03 05:41:49;;;;;;;8.20;2.75;;;8.30;99.90;;;;;;5050216;28;20044;-65
2022/10/03 05:44:44;;;;;;;8.05;3.20;;;8.30;99.90;;;;;;5021670;28;20179;-65
2022/10/03 05:47:44;;;;;;;12.02;2.95;;;8.20;99.90;;;;;;5027833;28;20121;-65
2022/10/03 05:50:31;;;;;;;4.82;3.03;;;8.30;99.90;;;;;;5022982;28;20055;-65
2022/10/03 05:53:15;;;;;;;7.57;2.58;;;8.20;99.90;;;;;;5023378;28;20402;-65
2022/10/03 05:55:45;;;;;;;7.55;3.50;;;8.20;99.90;;;;;;5031922;28;20461;-65
2022/10/03 05:58:19;;;;;;;7.22;2.92;;;8.20;99.90;;;;;;5044075;28;20308;-65
2022/10/03 06:01:23;;;;;;;7.83;2.83;;;8.30;99.90;;;;;;5031742;28;20478;-65
2022/10/03 06:04:27;;;;;;;9.40;2.95;;;8.30;99.90;;;;;;5044190;28;20049;-65
2022/10/03 06:07:19;;;;;;;6.53;2.97;;;8.30;99.90;;;;;;5032840;28;20511;-65
2022/10/03 06:09:49;;;;;;;9.50;2.13;;;8.30;99.90;;;;;;5041655;28;20052;-65
2022/10/03 06:12:19;;;;;;;8.40;3.10;;;8.40;99.90;;;;;;5050122;28;20136;-65
2022/10/03 06:15:38;;;;;;;6.30;2.67;;;8.30;99.90;;;;;;5022840;28;20037;-65
2022/10/03 06:18:10;;;;;;;6.93;2.85;;;8.40;99.90;;;;;;5021969;28;20508;-65
2022/10/03 06:21:12;;;;;;;10.00;3.30;;;8.40;99.90;;;;;;5028475;28;20407;-65
2022/10/03 06:23:48;;;;;;;7.72;3.05;;;8.30;99.90;;;;;;5024184;28;20057;-65
2022/10/03 06:26:35;;;;;;;5.22;2.60;;;8.30;99.90;;;;;;5049078;28;20084;-65
2022/10/03 06:29:29;;;;;;;5.90;2.60;;;8.30;99.90;;;;;;5040511;28;20132;-65
2022/10/03 06:32:15;;;;;;;3.45;2.42;;;8.30;99.90;;;;;;5035774;28;20050;-65
2022/10/03 06:35:03;;;;;;;16.60;4.30;;;8.40;99.90;;;;;;5047823;28;20053;-64
2022/10/03 06:37:45;;;;;;;8.95;2.85;;;8.40;99.90;;;;;;5020509;28;20416;-65
2022/10/03 06:40:15;;;;;;;16.90;3.13;;;8.50;99.90;;;;;;4699880;28;9999689;-65
2022/10/03 06:43:09;;;;;;;6.93;2.95;;;8.60;99.90;;;;;;5051694;28;20531;-65
2022/10/03 06:45:54;;;;;;;7.53;3.00;;;8.60;99.90;;;;;;5022167;28;20052;-65
2022/10/03 06:49:00;;;;;;;9.43;2.65;;;8.70;99.90;;;;;;5013697;28;20136;-65
2022/10/03 06:51:38;;;;;;;6.45;3.22;;;8.80;99.90;;;;;;5039706;28;20403;-65
2022/10/03 06:54:20;;;;;;;11.73;3.53;;;8.80;99.90;;;;;;5034748;28;20053;-65
2022/10/03 06:57:02;;;;;;;7.60;3.08;;;8.80;99.90;;;;;;5014087;28;20053;-65
2022/10/03 06:59:36;;;;;;;13.48;2.92;;;8.80;99.90;;;;;;5015060;28;20049;-64
2022/10/03 07:02:24;;;;;;;11.95;4.35;;;8.90;99.90;;;;;;5025679;28;20566;-66
2022/10/03 07:05:34;;;;;;;11.38;3.88;;;8.90;99.90;;;;;;5045412;28;20492;-67
2022/10/03 07:08:37;;;;;;;11.97;4.20;;;9.00;99.90;;;;;;5031092;28;20570;-65
2022/10/03 07:11:09;;;;;;;9.63;3.42;;;9.10;99.90;;;;;;5022988;28;20785;-65
2022/10/03 07:14:05;;;;;;;12.10;4.30;;;9.20;99.90;;;;;;5051148;28;20041;-64
2022/10/03 07:16:45;;;;;;;9.38;3.22;;;9.30;99.90;;;;;;5054287;28;20068;-65
2022/10/03 07:19:19;;;;;;;12.45;3.17;;;9.30;99.90;;;;;;5029346;28;20057;-67
2022/10/03 07:22:09;;;;;;;8.30;3.03;;;9.40;99.90;;;;;;5041889;28;20053;-65
2022/10/03 07:25:17;;;;;;;13.00;3.55;;;9.40;99.90;;;;;;5034363;28;20067;-66
2022/10/03 07:28:10;;;;;;;7.00;2.95;;;9.50;99.90;;;;;;5022944;28;20111;-66
2022/10/03 07:31:05;;;;;;;9.07;3.45;;;9.60;99.90;;;;;;4995559;28;20176;-66
2022/10/03 07:33:58;;;;;;;7.82;3.00;;;9.70;99.90;;;;;;5014697;28;20516;-66
2022/10/03 07:39:33;;;;;;;9.07;3.75;;;9.80;99.90;;;;;;5030367;28;20397;-67
2022/10/03 07:42:11;;;;;;;7.30;3.47;;;9.90;99.90;;;;;;5025043;28;20144;-66
2022/10/03 07:44:57;;;;;;;13.27;3.70;;;9.90;99.90;;;;;;5013351;28;20060;-67
2022/10/03 07:47:45;;;;;;;11.05;3.85;;;9.90;99.90;;;;;;5039118;28;20516;-67
2022/10/03 07:50:51;;;;;;;7.68;4.30;;;10.00;99.90;;;;;;5048974;28;20119;-67
2022/10/03 07:53:47;;;;;;;14.02;3.78;;;10.10;99.90;;;;;;4921213;29;20065;-68
2022/10/03 07:56:35;;;;;;;10.75;3.58;;;10.20;99.90;;;;;;5014277;28;20362;-68
2022/10/03 07:59:14;;;;;;;10.35;3.65;;;10.30;99.90;;;;;;5046705;28;20060;-67
2022/10/03 08:02:00;;;;;;;10.38;4.82;;;10.40;99.90;;;;;;5026954;28;20449;-66
2022/10/03 08:04:55;;;;;;;16.17;3.72;;;10.50;99.90;;;;;;5055007;28;20052;-67
2022/10/03 08:07:49;;;;;;;11.55;3.65;;;10.60;99.90;;;;;;5021069;28;20045;-68
2022/10/03 08:10:24;;;;;;;15.43;4.55;;;10.60;99.90;;;;;;5020821;28;20089;-65
2022/10/03 08:13:06;;;;;;;26.15;6.00;;;10.70;99.90;;;;;;5032996;28;20130;-66
2022/10/03 08:15:49;;;;;;;37.50;7.05;;;10.70;99.90;;;;;;5037694;28;20049;-66
2022/10/03 08:18:43;;;;;;;26.20;6.10;;;10.80;99.90;;;;;;5045006;28;20052;-66
2022/10/03 08:21:17;;;;;;;13.73;4.57;;;10.90;99.90;;;;;;5055566;28;20547;-66
2022/10/03 08:24:24;;;;;;;12.68;3.95;;;11.00;99.90;;;;;;5048104;28;20087;-65
2022/10/03 08:26:54;;;;;;;13.35;4.07;;;11.10;99.90;;;;;;5055608;28;20220;-64
2022/10/03 08:30:12;;;;;;;10.82;3.63;;;11.20;99.90;;;;;;5029049;28;20492;-66
2022/10/03 08:32:57;;;;;;;32.22;6.85;;;11.30;99.90;;;;;;4982694;28;20049;-67
2022/10/03 08:35:57;;;;;;;24.33;5.28;;;11.40;99.90;;;;;;5056930;28;20072;-68
2022/10/03 08:38:24;;;;;;;18.92;4.35;;;11.60;99.90;;;;;;5023293;28;20057;-67
2022/10/03 08:41:01;;;;;;;26.35;6.05;;;11.60;99.90;;;;;;5041269;28;20053;-66
2022/10/03 08:43:55;;;;;;;26.38;7.45;;;11.80;99.90;;;;;;5031260;28;20052;-66
2022/10/03 08:46:43;;;;;;;35.60;6.88;;;11.90;99.90;;;;;;5030459;28;20088;-67
2022/10/03 08:49:35;;;;;;;24.95;6.03;;;12.00;99.90;;;;;;5042488;28;20098;-65
2022/10/03 08:52:23;;;;;;;25.15;6.10;;;12.10;99.90;;;;;;5011935;28;20417;-65
2022/10/03 08:54:50;;;;;;;27.95;6.13;;;12.30;99.90;;;;;;5020173;28;20099;-65
2022/10/03 08:57:37;;;;;;;15.57;3.55;;;12.40;99.90;;;;;;5049855;28;20311;-65
2022/10/03 09:00:16;;;;;;;19.73;5.00;;;12.50;99.90;;;;;;5030096;28;20052;-65
2022/10/03 09:03:15;;;;;;;17.50;4.78;;;12.60;99.90;;;;;;5047582;28;20049;-65
2022/10/03 09:06:23;;;;;;;18.45;3.65;;;12.80;99.90;;;;;;5021160;28;20068;-66
2022/10/03 09:09:15;;;;;;;23.05;4.72;;;12.90;99.90;;;;;;5005974;28;20072;-64
2022/10/03 09:12:04;;;;;;;11.38;3.72;;;13.10;99.90;;;;;;5031646;28;20049;-65
2022/10/03 09:14:50;;;;;;;19.10;3.55;;;13.20;99.90;;;;;;5034261;28;20049;-65
2022/10/03 09:17:39;;;;;;;17.65;3.97;;;13.20;99.90;;;;;;5028837;28;20053;-64
2022/10/03 09:20:09;;;;;;;16.70;3.25;;;13.30;99.90;;;;;;5017057;28;20069;-65
2022/10/03 09:22:48;;;;;;;14.68;3.65;;;13.40;99.90;;;;;;5048878;28;20144;-66
2022/10/03 09:25:20;;;;;;;12.10;3.58;;;13.40;99.90;;;;;;5036195;28;20053;-66
2022/10/03 09:28:09;;;;;;;14.18;3.60;;;13.50;99.90;;;;;;5048152;28;20053;-65
2022/10/03 09:30:39;;;;;;;18.70;3.80;;;13.60;99.90;;;;;;5036130;28;20061;-65
2022/10/03 09:33:30;;;;;;;13.18;3.50;;;13.70;99.90;;;;;;5048851;28;20127;-66
2022/10/03 09:36:12;;;;;;;12.48;3.83;;;13.70;99.90;;;;;;5036147;28;20052;-65
2022/10/03 09:39:26;;;;;;;14.18;4.32;;;13.80;99.90;;;;;;5031234;28;20081;-64
2022/10/03 09:42:19;;;;;;;8.75;3.13;;;13.90;99.90;;;;;;5009124;28;20076;-63
2022/10/03 09:45:16;;;;;;;21.85;5.25;;;14.00;99.90;;;;;;5044853;28;20053;-65
2022/10/03 09:48:11;;;;;;;15.75;4.65;;;14.10;99.90;;;;;;5015077;28;20058;-67
2022/10/03 09:51:05;;;;;;;21.67;4.75;;;14.30;99.90;;;;;;5032155;28;20041;-64
2022/10/03 09:53:51;;;;;;;16.48;3.17;;;14.40;99.90;;;;;;5028474;28;20092;-65
2022/10/03 09:56:24;;;;;;;16.70;3.08;;;14.60;99.90;;;;;;5040639;28;20128;-64
2022/10/03 09:59:25;;;;;;;14.73;3.25;;;14.70;99.90;;;;;;5010758;28;20103;-65
2022/10/03 10:02:32;;;;;;;17.48;3.75;;;14.80;99.90;;;;;;5036689;28;20483;-65
2022/10/03 10:05:17;;;;;;;12.02;2.78;;;15.00;99.90;;;;;;5027139;28;20037;-65
2022/10/03 10:08:16;;;;;;;11.25;3.05;;;15.10;99.90;;;;;;5035189;28;20041;-65
2022/10/03 10:10:56;;;;;;;13.02;3.00;;;15.10;99.90;;;;;;5000887;28;20517;-64
2022/10/03 10:13:56;;;;;;;17.35;3.25;;;15.30;99.90;;;;;;5042489;28;20045;-64
2022/10/03 10:17:03;;;;;;;13.77;3.15;;;15.40;99.90;;;;;;4991733;28;20765;-65
2022/10/03 10:19:51;;;;;;;10.43;2.97;;;15.40;99.90;;;;;;5027688;28;20042;-64
2022/10/03 10:22:39;;;;;;;17.40;2.70;;;15.60;99.90;;;;;;5016341;28;20060;-64
2022/10/03 10:25:28;;;;;;;8.02;2.30;;;15.70;99.90;;;;;;5030287;28;20080;-65
2022/10/03 10:28:20;;;;;;;17.90;3.60;;;15.90;99.90;;;;;;5035685;28;20057;-67
2022/10/03 10:31:19;;;;;;;10.90;2.95;;;16.10;99.90;;;;;;5031237;28;20049;-66
2022/10/03 10:34:18;;;;;;;16.35;2.90;;;16.30;99.90;;;;;;4975519;28;20061;-64
2022/10/03 10:36:56;;;;;;;10.30;3.45;;;16.40;99.90;;;;;;5026851;28;20103;-66
2022/10/03 10:39:35;;;;;;;14.32;2.33;;;16.40;99.90;;;;;;5042299;28;20091;-64
2022/10/03 10:42:39;;;;;;;10.43;2.17;;;16.40;99.90;;;;;;5037507;28;20532;-64
2022/10/03 10:45:21;;;;;;;10.43;2.78;;;16.50;99.90;;;;;;5027960;28;20068;-65
2022/10/03 10:48:26;;;;;;;13.30;2.40;;;16.60;99.90;;;;;;5040262;28;20049;-65
2022/10/03 10:51:29;;;;;;;9.32;1.85;;;16.70;99.90;;;;;;5010405;28;20093;-64
2022/10/03 10:54:11;;;;;;;8.77;2.25;;;16.70;99.90;;;;;;5028803;28;20090;-63
2022/10/03 10:57:06;;;;;;;20.77;3.20;;;16.80;99.90;;;;;;5028473;28;20045;-64
2022/10/03 10:59:47;;;;;;;14.27;2.67;;;16.80;99.90;;;;;;5020819;28;20415;-65
2022/10/03 11:02:33;;;;;;;14.20;2.45;;;17.00;99.90;;;;;;5027752;28;20045;-64
2022/10/03 11:05:38;;;;;;;16.42;5.25;;;17.20;99.90;;;;;;5040541;28;20560;-65
2022/10/03 11:08:22;;;;;;;11.15;2.17;;;17.20;99.90;;;;;;5024056;28;20053;-63
2022/10/03 11:11:20;;;;;;;17.58;3.08;;;17.30;99.90;;;;;;5013403;28;20059;-64
2022/10/03 11:14:27;;;;;;;10.10;2.05;;;17.30;99.90;;;;;;5035016;28;20064;-65
2022/10/03 11:17:08;;;;;;;9.57;1.77;;;17.30;99.90;;;;;;5047430;28;20057;-64
2022/10/03 11:19:54;;;;;;;5.45;1.38;;;17.40;99.90;;;;;;5045922;28;20131;-64
2022/10/03 11:22:52;;;;;;;13.30;1.77;;;17.50;99.90;;;;;;5035183;28;20065;-66
2022/10/03 11:25:44;;;;;;;13.40;2.63;;;17.60;99.90;;;;;;5027758;28;20059;-65
2022/10/03 11:28:20;;;;;;;14.43;2.65;;;17.70;99.90;;;;;;5032414;28;20051;-65
2022/10/03 11:31:24;;;;;;;9.07;2.53;;;17.70;99.90;;;;;;5047777;28;20052;-66
2022/10/03 11:34:16;;;;;;;13.73;2.95;;;17.70;99.90;;;;;;5028736;28;20050;-64
2022/10/03 11:37:08;;;;;;;8.38;1.60;;;17.80;99.90;;;;;;5025586;28;20572;-67
2022/10/03 11:40:06;;;;;;;8.68;2.20;;;17.90;99.90;;;;;;5039912;28;20081;-65
2022/10/03 11:42:57;;;;;;;7.97;2.25;;;17.90;99.90;;;;;;5040586;28;20048;-65
2022/10/03 11:45:41;;;;;;;10.43;2.05;;;17.90;99.90;;;;;;5042597;28;20071;-66
2022/10/03 11:48:46;;;;;;;10.38;2.70;;;18.00;99.90;;;;;;5026592;28;20043;-64
2022/10/03 11:51:20;;;;;;;13.95;3.40;;;18.20;99.90;;;;;;5043963;28;20484;-65
2022/10/03 11:54:03;;;;;;;8.43;2.03;;;18.30;99.90;;;;;;5023802;28;20056;-65
2022/10/03 11:56:54;;;;;;;10.70;2.83;;;18.30;99.90;;;;;;5043188;28;20052;-65
2022/10/03 11:59:45;;;;;;;17.40;2.38;;;18.30;99.90;;;;;;5012623;28;20041;-65
2022/10/03 12:02:30;;;;;;;13.63;2.40;;;18.30;99.90;;;;;;5038506;28;20042;-64
2022/10/03 12:05:31;;;;;;;8.63;1.95;;;18.30;99.90;;;;;;5038706;28;20081;-66
2022/10/03 12:11:05;;;;;;;6.30;2.17;;;18.20;99.90;;;;;;5034385;28;20057;-65
2022/10/03 12:14:10;;;;;;;11.70;2.67;;;18.20;99.90;;;;;;5004208;28;20056;-65
2022/10/03 12:16:56;;;;;;;11.75;2.40;;;18.10;99.90;;;;;;5048785;28;20493;-64
2022/10/03 12:19:29;;;;;;;9.80;2.10;;;18.10;99.90;;;;;;5037387;28;20041;-64
2022/10/03 12:22:08;;;;;;;14.07;2.13;;;18.00;99.90;;;;;;5018050;28;20539;-65
2022/10/03 12:24:42;;;;;;;11.63;3.45;;;18.00;99.90;;;;;;5033533;28;20041;-64
2022/10/03 12:27:09;;;;;;;10.10;2.28;;;18.10;99.90;;;;;;5015674;28;20060;-65
2022/10/03 12:29:39;;;;;;;6.95;2.08;;;18.10;99.90;;;;;;5040120;28;20401;-65
2022/10/03 12:32:20;;;;;;;9.40;1.63;;;18.30;99.90;;;;;;5012542;28;20041;-65
2022/10/03 12:34:48;;;;;;;12.98;2.05;;;18.40;99.90;;;;;;5064136;28;20055;-65
2022/10/03 12:37:33;;;;;;;9.82;2.47;;;18.40;99.90;;;;;;5039951;28;20123;-65
2022/10/03 12:40:39;;;;;;;18.23;3.40;;;18.30;99.90;;;;;;5034138;28;20415;-66
2022/10/03 12:43:27;;;;;;;12.65;3.20;;;18.20;99.90;;;;;;5044414;28;20057;-64
2022/10/03 12:46:02;;;;;;;5.38;1.73;;;18.20;99.90;;;;;;5033086;28;20041;-64
2022/10/03 12:48:36;;;;;;;6.25;2.42;;;18.30;99.90;;;;;;5028864;28;20048;-64
2022/10/03 12:51:25;;;;;;;17.25;2.53;;;18.30;99.90;;;;;;5047981;28;20045;-65
2022/10/03 12:54:15;;;;;;;6.30;2.17;;;18.50;99.90;;;;;;5029911;28;20056;-65
2022/10/03 12:57:19;;;;;;;15.10;2.65;;;18.60;99.90;;;;;;5026978;28;20042;-65
2022/10/03 12:59:53;;;;;;;9.20;2.80;;;18.70;99.90;;;;;;4989605;28;20055;-65
2022/10/03 13:02:42;;;;;;;7.47;2.60;;;18.70;99.90;;;;;;5030432;28;20048;-65
2022/10/03 13:05:13;;;;;;;10.25;2.25;;;18.70;99.90;;;;;;5032545;28;20483;-65
2022/10/03 13:07:55;;;;;;;9.73;1.98;;;18.80;99.90;;;;;;5044562;28;20427;-65
2022/10/03 13:10:36;;;;;;;6.53;2.20;;;18.70;99.90;;;;;;5032652;28;20049;-65
2022/10/03 13:13:19;;;;;;;8.68;2.20;;;18.70;99.90;;;;;;5027181;28;20489;-65
2022/10/03 13:15:51;;;;;;;9.18;1.95;;;18.70;99.90;;;;;;5014745;28;20136;-63
2022/10/03 13:18:24;;;;;;;11.20;2.05;;;18.70;99.90;;;;;;5039245;28;20114;-63
2022/10/03 13:21:09;;;;;;;10.98;2.00;;;18.70;99.90;;;;;;5051481;28;20059;-65
2022/10/03 13:24:08;;;;;;;7.90;2.53;;;18.60;99.90;;;;;;4697956;28;10000289;-64
2022/10/03 13:26:41;;;;;;;7.18;2.13;;;18.70;99.90;;;;;;5046115;28;20081;-65
2022/10/03 13:29:22;;;;;;;7.80;2.33;;;18.70;99.90;;;;;;5005735;28;20099;-64
2022/10/03 13:32:15;;;;;;;15.23;2.60;;;18.80;99.90;;;;;;4996463;28;20059;-64
2022/10/03 13:34:57;;;;;;;7.38;1.95;;;18.90;99.90;;;;;;5004612;28;20527;-64
2022/10/03 13:37:26;;;;;;;9.20;2.00;;;19.00;99.90;;;;;;5012352;28;20055;-64
2022/10/03 13:39:53;;;;;;;7.68;1.95;;;19.00;99.90;;;;;;5038740;28;20045;-64
2022/10/03 13:42:40;;;;;;;10.60;1.92;;;18.90;99.90;;;;;;4998277;28;20450;-64
2022/10/03 13:45:13;;;;;;;11.07;2.17;;;18.80;99.90;;;;;;5011000;28;20065;-64
2022/10/03 13:48:01;;;;;;;12.80;2.00;;;18.80;99.90;;;;;;4996743;28;20049;-64
2022/10/03 13:50:32;;;;;;;4.82;1.67;;;18.70;99.90;;;;;;5035816;28;20063;-64
2022/10/03 13:53:14;;;;;;;8.85;1.63;;;18.70;99.90;;;;;;5014361;28;20055;-63
2022/10/03 13:55:57;;;;;;;8.50;2.17;;;18.60;99.90;;;;;;5009284;28;20511;-64
2022/10/03 13:58:52;;;;;;;9.73;2.30;;;18.70;99.90;;;;;;5016057;28;20056;-64
2022/10/03 14:01:34;;;;;;;10.15;1.20;;;18.70;99.90;;;;;;5013778;28;20064;-63
2022/10/03 14:04:24;;;;;;;7.82;2.30;;;18.70;99.90;;;;;;5020256;28;20053;-64
2022/10/03 14:06:51;;;;;;;16.20;2.05;;;18.70;99.90;;;;;;5026638;28;20081;-64
2022/10/03 14:09:37;;;;;;;10.85;2.03;;;18.70;99.90;;;;;;5037564;28;20139;-64
2022/10/03 14:12:10;;;;;;;7.25;1.70;;;18.70;99.90;;;;;;5009711;28;20053;-65
2022/10/03 14:14:41;;;;;;;7.72;2.08;;;18.70;99.90;;;;;;5005763;28;20053;-64
2022/10/03 14:17:10;;;;;;;10.88;2.40;;;18.60;99.90;;;;;;5010407;28;20059;-65
2022/10/03 14:19:40;;;;;;;8.40;1.98;;;18.60;99.90;;;;;;5020460;28;20491;-66
2022/10/03 14:22:22;;;;;;;8.13;1.88;;;18.60;99.90;;;;;;5029333;28;20061;-65
2022/10/03 14:25:19;;;;;;;5.88;2.20;;;18.50;99.90;;;;;;5038467;28;20152;-65
2022/10/03 14:27:47;;;;;;;10.98;1.83;;;18.50;99.90;;;;;;4996240;28;20061;-66
2022/10/03 14:30:19;;;;;;;9.93;4.00;;;18.50;99.90;;;;;;5039520;28;20462;-65
2022/10/03 14:33:23;;;;;;;11.73;2.20;;;18.40;99.90;;;;;;4995560;28;20083;-65
2022/10/03 14:36:08;;;;;;;8.05;2.15;;;18.40;99.90;;;;;;5019214;28;20106;-66
2022/10/03 14:39:20;;;;;;;4.85;1.60;;;18.40;99.90;;;;;;5047694;28;20049;-66